首页
METAR-TAF:

METAR-TAF

机场 :

印第安纳波利斯国际机场

印第安納波利斯, 印第安纳州, 美国

纬度: 39-43-30N, 经度: 086-16-55W, 海拔: 243米

当前天气观测

该预报发布于23分钟前的20:54 UTC
风速14节,风向西南,有时为21节阵风
温度 33°C
湿度 53%
气压 1016 hPa
能見度: 16.1公里
散云层高于5000英尺
散云层高于25000英尺

METAR: KIND 182054Z 23014G21KT 10SM SCT050 SCT250 33/22 A3000 RMK AO2 SLP151 T03280222 56019

时间: 17:17 (21:17 UTC)

预报

该预报发布于1小时和10分钟前的20:07 UTC
预报有效从18日的 20点(UTC)到 19日的 24点(UTC)
风速11节,风向西转西南,有时为22节阵风
能見度: 10公里
散云层高于4500英尺
从 19日的 0000点(UTC)
风速10节,风向西南
能見度: 10公里
少量云层高于25000英尺
从 19日的 1100点(UTC)
风速5节,风向西转西南
能見度: 10公里
散云层高于25000英尺

TAF: KIND 182007Z 1820/1924 24011G22KT P6SM SCT045 FM190000 23010KT P6SM FEW250 FM191100 25005KT P6SM SCT250

超过4000个机场的气象观测和天气预报(METAR&TAF报告)。

可查询的气象台以黄色和红色小点在地图上表示。

将鼠标移到小点上方,可查看气象台名称。

然后点击查看天气观测和预报。

如需切换地图:点击带黑十字的绿色按钮放大地图;点击带横线的绿色按钮缩小地图;或者点击绿色箭头查看邻近地区的地图。


METAR-TAF: